createdAt,value
2023-02-22T00:00:39.981Z,10.79
2023-02-22T00:03:07.384Z,10.80
2023-02-22T00:05:33.331Z,10.80
2023-02-22T00:08:00.323Z,10.79
2023-02-22T00:10:27.127Z,10.80
2023-02-22T00:12:55.094Z,10.80
2023-02-22T00:15:26.630Z,10.78
2023-02-22T00:17:54.478Z,10.76
2023-02-22T00:20:22.857Z,10.74
2023-02-22T00:22:51.134Z,10.71
2023-02-22T00:25:20.031Z,10.67
2023-02-22T00:27:47.743Z,10.68
2023-02-22T00:30:21.682Z,10.71
2023-02-22T00:32:49.247Z,10.73
2023-02-22T00:35:17.550Z,10.74
2023-02-22T00:37:48.122Z,10.73
2023-02-22T00:40:23.150Z,10.71
2023-02-22T00:42:49.778Z,10.72
2023-02-22T00:45:18.907Z,10.74
2023-02-22T00:47:45.016Z,10.76
2023-02-22T00:50:17.269Z,10.75
2023-02-22T00:52:44.658Z,10.77
2023-02-22T00:55:20.558Z,10.80
2023-02-22T00:57:46.846Z,10.83
2023-02-22T01:00:36.970Z,10.86
2023-02-22T01:03:05.526Z,10.89
2023-02-22T01:05:32.600Z,10.90
2023-02-22T01:08:00.252Z,10.92
2023-02-22T01:10:29.005Z,10.90
2023-02-22T01:12:56.083Z,10.90
2023-02-22T01:15:24.296Z,10.88
2023-02-22T01:17:52.907Z,10.86
2023-02-22T01:20:22.170Z,10.87
2023-02-22T01:22:50.292Z,10.87
2023-02-22T01:25:23.917Z,10.89
2023-02-22T01:27:51.645Z,10.91
2023-02-22T01:30:24.067Z,10.91
2023-02-22T01:32:52.334Z,10.89
2023-02-22T01:35:22.309Z,10.82
2023-02-22T01:37:48.458Z,10.77
2023-02-22T01:40:19.832Z,10.77
2023-02-22T01:42:50.953Z,10.77
2023-02-22T01:45:29.495Z,10.78
2023-02-22T01:48:13.376Z,10.78
2023-02-22T01:50:44.537Z,10.77
2023-02-22T01:53:16.994Z,10.78
2023-02-22T01:55:45.431Z,10.79
2023-02-22T01:58:13.854Z,10.81
2023-02-22T02:00:41.591Z,10.81
2023-02-22T02:03:14.406Z,10.80
2023-02-22T02:05:41.187Z,10.80
2023-02-22T02:08:22.488Z,10.78
2023-02-22T02:10:48.847Z,10.75
2023-02-22T02:13:15.966Z,10.74
2023-02-22T02:15:42.088Z,10.73
2023-02-22T02:18:11.696Z,10.75
2023-02-22T02:20:38.109Z,10.79
2023-02-22T02:23:23.843Z,10.81
2023-02-22T02:26:29.459Z,10.81
2023-02-22T02:29:23.818Z,10.82
2023-02-22T02:32:15.071Z,10.79
2023-02-22T02:35:10.839Z,10.82
2023-02-22T02:37:55.827Z,10.83
2023-02-22T02:40:22.079Z,10.83
2023-02-22T02:43:16.871Z,10.84
2023-02-22T02:46:11.002Z,10.84
2023-02-22T02:48:43.298Z,10.86
2023-02-22T02:51:13.805Z,10.89
2023-02-22T02:53:44.172Z,10.90
2023-02-22T02:56:10.209Z,10.89
2023-02-22T02:58:52.119Z,10.90
2023-02-22T03:01:49.882Z,10.90
2023-02-22T03:04:56.293Z,10.88
2023-02-22T03:07:32.860Z,10.87
2023-02-22T03:10:26.824Z,10.86
2023-02-22T03:13:17.646Z,10.83
2023-02-22T03:16:07.147Z,10.80
2023-02-22T03:18:42.424Z,10.75
2023-02-22T03:21:11.558Z,10.72
2023-02-22T03:23:51.624Z,10.72
2023-02-22T03:26:28.978Z,10.70
2023-02-22T03:28:56.961Z,10.69
2023-02-22T03:31:28.246Z,10.71
2023-02-22T03:34:00.249Z,10.73
2023-02-22T03:36:32.966Z,10.75
2023-02-22T03:39:03.702Z,10.75
2023-02-22T03:41:32.154Z,10.76
2023-02-22T03:44:06.373Z,10.74
2023-02-22T03:46:35.593Z,10.74
2023-02-22T03:49:09.771Z,10.71
2023-02-22T03:51:39.023Z,10.69
2023-02-22T03:54:07.113Z,10.66
2023-02-22T03:56:49.543Z,10.64
2023-02-22T03:59:19.526Z,10.64
2023-02-22T04:01:45.492Z,10.64
2023-02-22T04:04:11.741Z,10.61
2023-02-22T04:06:38.405Z,10.58
2023-02-22T04:09:04.789Z,10.59
2023-02-22T04:11:31.598Z,10.62
2023-02-22T04:13:59.900Z,10.63
2023-02-22T04:16:26.015Z,10.65
2023-02-22T04:18:52.117Z,10.66
2023-02-22T04:21:19.386Z,10.66
2023-02-22T04:23:48.336Z,10.65
2023-02-22T04:26:14.917Z,10.67
2023-02-22T04:28:43.716Z,10.67
2023-02-22T04:31:15.935Z,10.66
2023-02-22T04:33:43.002Z,10.65
2023-02-22T04:36:12.994Z,10.67
2023-02-22T04:38:39.387Z,10.68
2023-02-22T04:41:06.586Z,10.71
2023-02-22T04:43:32.698Z,10.71
2023-02-22T04:46:13.309Z,10.70
2023-02-22T04:48:39.422Z,10.61
2023-02-22T04:51:06.140Z,10.59
2023-02-22T04:53:32.804Z,10.60
2023-02-22T04:55:59.158Z,10.63
2023-02-22T04:58:26.389Z,10.67
2023-02-22T05:00:52.491Z,10.68
2023-02-22T05:03:18.686Z,10.62
2023-02-22T05:05:45.090Z,10.56
2023-02-22T05:08:11.132Z,10.50
2023-02-22T05:10:37.240Z,10.45
2023-02-22T05:13:04.282Z,10.46
2023-02-22T05:15:30.477Z,10.51
2023-02-22T05:17:56.565Z,10.57
2023-02-22T05:20:29.694Z,10.63
2023-02-22T05:22:57.534Z,10.68
2023-02-22T05:25:24.546Z,10.73
2023-02-22T05:27:53.142Z,10.77
2023-02-22T05:30:26.121Z,10.81
2023-02-22T05:32:52.770Z,10.83
2023-02-22T05:35:21.593Z,10.87
2023-02-22T05:37:50.119Z,10.91
2023-02-22T05:40:21.703Z,10.94
2023-02-22T05:42:49.132Z,10.97
2023-02-22T05:45:17.288Z,11.01
2023-02-22T05:47:44.361Z,11.01
2023-02-22T05:50:11.269Z,10.95
2023-02-22T05:52:38.131Z,10.81
2023-02-22T05:55:05.557Z,10.67
2023-02-22T05:57:31.634Z,10.59
2023-02-22T05:59:57.851Z,10.55
2023-02-22T06:02:23.902Z,10.57
2023-02-22T06:04:50.234Z,10.56
2023-02-22T06:07:16.366Z,10.53
2023-02-22T06:09:42.449Z,10.53
2023-02-22T06:12:09.491Z,10.54
2023-02-22T06:14:36.255Z,10.53
2023-02-22T06:17:04.775Z,10.50
2023-02-22T06:19:30.830Z,10.49
2023-02-22T06:21:59.379Z,10.52
2023-02-22T06:24:25.565Z,10.54
2023-02-22T06:26:59.463Z,10.58
2023-02-22T06:29:26.957Z,10.64
2023-02-22T06:31:53.222Z,10.72
2023-02-22T06:34:21.448Z,10.78
2023-02-22T06:36:48.385Z,10.83
2023-02-22T06:39:15.927Z,10.87
2023-02-22T06:41:43.695Z,10.91
2023-02-22T06:44:10.703Z,10.93
2023-02-22T06:46:37.966Z,10.96
2023-02-22T06:49:04.851Z,10.98
2023-02-22T06:51:36.346Z,11.04
2023-02-22T06:54:05.783Z,11.09
2023-02-22T06:56:48.413Z,11.14
2023-02-22T06:59:15.101Z,11.18
2023-02-22T07:01:42.254Z,11.21
2023-02-22T07:04:08.831Z,11.23
2023-02-22T07:06:35.821Z,11.25
2023-02-22T07:09:03.257Z,11.26
2023-02-22T07:11:29.142Z,11.28
2023-02-22T07:13:56.456Z,11.28
2023-02-22T07:16:22.450Z,11.27
2023-02-22T07:18:48.643Z,11.25
2023-02-22T07:21:14.878Z,11.24
2023-02-22T07:23:41.049Z,11.20
2023-02-22T07:26:07.151Z,11.15
2023-02-22T07:28:47.788Z,11.13
2023-02-22T07:31:14.912Z,11.15
2023-02-22T07:33:41.088Z,11.20
2023-02-22T07:36:07.595Z,11.27
2023-02-22T07:38:36.289Z,11.33
2023-02-22T07:41:02.478Z,11.38
2023-02-22T07:43:30.598Z,11.42
2023-02-22T07:46:02.166Z,11.40
2023-02-22T07:48:30.524Z,11.36
2023-02-22T07:50:58.078Z,11.32
2023-02-22T07:53:30.241Z,11.29
2023-02-22T07:56:00.799Z,11.29
2023-02-22T07:58:31.716Z,11.27
2023-02-22T08:01:01.435Z,11.23
2023-02-22T08:03:35.975Z,11.24
2023-02-22T08:06:07.086Z,11.27
2023-02-22T08:08:33.948Z,11.25
2023-02-22T08:10:59.912Z,11.25
2023-02-22T08:13:26.039Z,11.24
2023-02-22T08:15:53.149Z,11.22
2023-02-22T08:18:20.549Z,11.24
2023-02-22T08:20:48.106Z,11.28
2023-02-22T08:23:16.375Z,11.32
2023-02-22T08:25:42.860Z,11.38
2023-02-22T08:28:11.768Z,11.43
2023-02-22T08:30:42.916Z,11.45
2023-02-22T08:33:13.811Z,11.50
2023-02-22T08:35:42.885Z,11.60
2023-02-22T08:38:18.775Z,11.69
2023-02-22T08:40:46.110Z,11.72
2023-02-22T08:43:13.291Z,11.74
2023-02-22T08:45:40.016Z,11.76
2023-02-22T08:48:06.322Z,11.80
2023-02-22T08:50:35.812Z,11.84
2023-02-22T08:53:04.954Z,11.87
2023-02-22T08:55:34.408Z,11.88
2023-02-22T08:58:02.512Z,11.88
2023-02-22T09:00:32.524Z,11.85
2023-02-22T09:03:00.038Z,11.85
2023-02-22T09:05:26.604Z,11.87
2023-02-22T09:07:52.809Z,11.98
2023-02-22T09:10:25.473Z,12.08
2023-02-22T09:12:52.140Z,12.17
2023-02-22T09:15:18.742Z,12.24
2023-02-22T09:17:45.107Z,12.30
2023-02-22T09:20:11.774Z,12.38
2023-02-22T09:25:22.767Z,12.42
2023-02-22T09:27:52.843Z,12.44
2023-02-22T09:30:32.056Z,12.52
2023-02-22T09:33:13.960Z,12.51
2023-02-22T09:35:41.592Z,12.52
2023-02-22T09:38:09.801Z,12.58
2023-02-22T09:40:44.479Z,12.67
2023-02-22T09:43:16.571Z,12.75
2023-02-22T09:46:13.275Z,12.80
2023-02-22T09:48:59.557Z,12.86
2023-02-22T09:51:36.918Z,12.90
2023-02-22T09:54:05.821Z,12.97
2023-02-22T09:56:33.603Z,13.06
2023-02-22T09:59:06.401Z,13.14
2023-02-22T10:01:59.029Z,13.21
2023-02-22T10:04:44.343Z,13.23
2023-02-22T10:07:19.954Z,13.27
2023-02-22T10:09:48.428Z,13.36
2023-02-22T10:12:23.845Z,13.48
2023-02-22T10:15:11.342Z,13.60
2023-02-22T10:18:00.476Z,13.69
2023-02-22T10:21:04.447Z,13.70
2023-02-22T10:23:38.354Z,13.72
2023-02-22T10:26:19.684Z,13.74
2023-02-22T10:29:10.121Z,13.83
2023-02-22T10:31:43.463Z,14.04
2023-02-22T10:34:23.159Z,14.09
2023-02-22T10:36:53.403Z,14.19
2023-02-22T10:39:32.414Z,14.26
2023-02-22T10:42:06.238Z,14.34
2023-02-22T10:44:33.548Z,14.52
2023-02-22T10:47:02.073Z,14.66
2023-02-22T10:49:36.013Z,14.82
2023-02-22T10:52:10.633Z,15.02
2023-02-22T10:54:42.460Z,15.26
2023-02-22T10:57:11.589Z,15.35
2023-02-22T10:59:41.400Z,15.38
2023-02-22T11:02:36.914Z,15.52
2023-02-22T11:05:04.442Z,15.76
2023-02-22T11:07:33.323Z,15.96
2023-02-22T11:10:02.243Z,16.13
2023-02-22T11:12:32.789Z,16.26
2023-02-22T11:15:19.082Z,16.35
2023-02-22T11:17:52.260Z,16.47
2023-02-22T11:20:25.039Z,16.51
2023-02-22T11:23:01.375Z,16.50
2023-02-22T11:25:39.435Z,16.46
2023-02-22T11:28:08.487Z,16.53
2023-02-22T11:30:37.528Z,16.50
2023-02-22T11:33:22.920Z,16.48
2023-02-22T11:35:55.004Z,16.46
2023-02-22T11:38:23.610Z,16.43
2023-02-22T11:41:15.657Z,16.46
2023-02-22T11:43:44.010Z,16.53
2023-02-22T11:46:44.604Z,16.57
2023-02-22T11:49:24.024Z,16.40
2023-02-22T11:52:18.560Z,16.26
2023-02-22T11:55:26.718Z,16.23
2023-02-22T11:58:20.365Z,16.02
2023-02-22T12:01:01.497Z,15.77
2023-02-22T12:04:10.357Z,15.57
2023-02-22T12:07:28.669Z,15.38
2023-02-22T12:10:20.322Z,15.19
2023-02-22T12:13:16.486Z,15.04
2023-02-22T12:15:49.265Z,14.87
2023-02-22T12:18:37.107Z,14.73
2023-02-22T12:21:17.809Z,14.55
2023-02-22T12:23:56.164Z,14.38
2023-02-22T12:26:31.175Z,14.26
2023-02-22T12:29:08.082Z,14.15
2023-02-22T12:35:55.130Z,14.04
2023-02-22T12:41:52.717Z,13.94
2023-02-22T12:44:57.490Z,13.94
2023-02-22T12:47:56.775Z,13.87
2023-02-22T12:50:28.005Z,13.85
2023-02-22T12:53:06.000Z,13.86
2023-02-22T12:55:48.161Z,13.86
2023-02-22T12:58:41.508Z,13.90
2023-02-22T13:01:19.445Z,13.93
2023-02-22T13:03:48.466Z,13.89
2023-02-22T13:06:52.309Z,13.84
2023-02-22T13:09:48.841Z,13.77
2023-02-22T13:12:36.214Z,13.72
2023-02-22T13:15:23.721Z,13.72
2023-02-22T13:18:25.974Z,13.71
2023-02-22T13:21:30.037Z,13.73
2023-02-22T13:25:15.431Z,13.74
2023-02-22T13:33:10.995Z,13.77
2023-02-22T13:36:22.483Z,13.84
2023-02-22T13:43:19.425Z,13.96
2023-02-22T13:46:04.455Z,13.99
2023-02-22T13:49:27.842Z,14.04
2023-02-22T14:20:40.352Z,13.83
2023-02-22T14:23:40.233Z,13.83
2023-02-22T14:26:34.155Z,13.88
2023-02-22T14:29:07.165Z,13.93
2023-02-22T14:31:51.222Z,13.96
2023-02-22T14:34:39.339Z,13.97
2023-02-22T14:37:13.302Z,13.97
2023-02-22T14:39:44.384Z,13.95
2023-02-22T14:42:17.125Z,13.91
2023-02-22T14:45:17.444Z,13.86
2023-02-22T14:48:00.415Z,13.83
2023-02-22T14:50:54.565Z,13.78
2023-02-22T14:53:36.046Z,13.72
2023-02-22T14:56:11.234Z,13.65
2023-02-22T14:58:44.639Z,13.58
2023-02-22T15:01:44.279Z,13.54
2023-02-22T15:04:43.123Z,13.49
2023-02-22T15:07:26.648Z,13.43
2023-02-22T15:10:06.245Z,13.38
2023-02-22T15:12:32.572Z,13.33
2023-02-22T15:15:31.205Z,13.29
2023-02-22T15:17:57.976Z,13.27
2023-02-22T15:20:25.255Z,13.27
2023-02-22T15:22:57.142Z,13.27
2023-02-22T15:25:27.098Z,13.26
2023-02-22T15:27:53.188Z,13.28
2023-02-22T15:30:29.061Z,13.32
2023-02-22T15:33:10.049Z,13.39
2023-02-22T15:35:36.999Z,13.49
2023-02-22T15:38:19.710Z,13.58
2023-02-22T15:40:50.093Z,13.72
2023-02-22T15:43:28.009Z,13.86
2023-02-22T15:45:55.808Z,13.98
2023-02-22T15:48:22.774Z,14.03
2023-02-22T15:51:06.440Z,14.08
2023-02-22T15:53:39.450Z,14.12
2023-02-22T15:56:09.870Z,14.13
2023-02-22T15:58:36.480Z,14.11
2023-02-22T16:01:05.986Z,14.04
2023-02-22T16:03:44.141Z,13.94
2023-02-22T16:06:34.521Z,13.83
2023-02-22T16:09:12.457Z,13.74
2023-02-22T16:11:43.551Z,13.63
2023-02-22T16:14:30.050Z,13.53
2023-02-22T16:17:37.056Z,13.45
2023-02-22T16:20:38.138Z,13.36
2023-02-22T16:24:15.079Z,13.24
2023-02-22T16:27:00.722Z,13.14
2023-02-22T16:29:26.855Z,13.05
2023-02-22T16:31:53.078Z,13.00
2023-02-22T16:34:21.771Z,12.99
2023-02-22T16:36:52.184Z,12.99
2023-02-22T16:39:30.448Z,12.98
2023-02-22T16:42:02.199Z,12.96
2023-02-22T16:44:28.614Z,12.94
2023-02-22T16:46:57.512Z,12.91
2023-02-22T16:49:24.294Z,12.88
2023-02-22T16:51:54.647Z,12.84
2023-02-22T16:54:27.768Z,12.79
2023-02-22T16:57:06.594Z,12.74
2023-02-22T16:59:40.892Z,12.69
2023-02-22T17:02:12.841Z,12.64
2023-02-22T17:04:39.611Z,12.60
2023-02-22T17:07:09.636Z,12.56
2023-02-22T17:09:38.600Z,12.53
2023-02-22T17:12:33.061Z,12.52
2023-02-22T17:15:07.021Z,12.50
2023-02-22T17:17:57.387Z,12.51
2023-02-22T17:20:29.884Z,12.52
2023-02-22T17:23:01.825Z,12.53
2023-02-22T17:25:38.645Z,12.51
2023-02-22T17:28:07.929Z,12.50
2023-02-22T17:30:41.562Z,12.46
2023-02-22T17:33:15.440Z,12.42
2023-02-22T17:35:41.490Z,12.38
2023-02-22T17:38:09.179Z,12.32
2023-02-22T17:40:39.352Z,12.25
2023-02-22T17:43:10.281Z,12.19
2023-02-22T17:45:49.119Z,12.14
2023-02-22T17:48:16.324Z,12.10
2023-02-22T17:50:44.621Z,12.09
2023-02-22T17:53:11.549Z,12.07
2023-02-22T17:55:40.076Z,12.03
2023-02-22T17:58:13.917Z,12.00
2023-02-22T18:00:43.292Z,11.98
2023-02-22T18:03:27.984Z,11.95
2023-02-22T18:10:52.242Z,11.79
2023-02-22T18:25:01.993Z,11.68
2023-02-22T18:27:37.854Z,11.68
2023-02-22T18:30:24.143Z,11.67
2023-02-22T18:36:56.156Z,11.64
2023-02-22T18:39:22.229Z,11.62
2023-02-22T18:42:02.057Z,11.58
2023-02-22T18:44:53.002Z,11.54
2023-02-22T18:47:25.320Z,11.47
2023-02-22T18:50:14.146Z,11.40
2023-02-22T18:53:04.948Z,11.30
2023-02-22T19:13:13.244Z,11.39
2023-02-22T19:16:16.783Z,11.34
2023-02-22T19:18:54.744Z,11.27
2023-02-22T19:21:33.138Z,11.22
2023-02-22T19:24:25.893Z,11.16
2023-02-22T19:27:10.718Z,11.15
2023-02-22T19:30:43.667Z,11.16
2023-02-22T19:33:26.939Z,11.21
2023-02-22T19:35:59.424Z,11.25
2023-02-22T19:39:14.707Z,11.29
2023-02-22T19:41:50.555Z,11.32
2023-02-22T19:44:25.858Z,11.28
2023-02-22T19:46:55.174Z,11.29
2023-02-22T19:49:22.813Z,11.32
2023-02-22T19:51:55.318Z,11.37
2023-02-22T19:54:30.322Z,11.41
2023-02-22T19:57:02.220Z,11.42
2023-02-22T19:59:31.026Z,11.45
2023-02-22T20:01:57.846Z,11.45
2023-02-22T20:04:54.805Z,11.45
2023-02-22T20:14:07.887Z,11.30
2023-02-22T20:16:34.649Z,11.27
2023-02-22T20:19:01.259Z,11.26
2023-02-22T20:21:37.796Z,11.24
2023-02-22T20:24:07.145Z,11.24
2023-02-22T20:26:36.486Z,11.24
2023-02-22T20:29:04.097Z,11.23
2023-02-22T20:31:31.285Z,11.24
2023-02-22T20:34:00.194Z,11.24
2023-02-22T20:36:29.042Z,11.28
2023-02-22T20:38:57.689Z,11.30
2023-02-22T20:41:30.854Z,11.30
2023-02-22T20:43:58.525Z,11.27
2023-02-22T20:46:26.390Z,11.28
2023-02-22T20:48:57.009Z,11.24
2023-02-22T20:51:23.676Z,11.17
2023-02-22T20:53:49.907Z,11.12
2023-02-22T20:56:23.344Z,11.08
2023-02-22T20:58:49.886Z,11.06
2023-02-22T21:01:22.080Z,11.09
2023-02-22T21:03:49.452Z,11.12
2023-02-22T21:06:20.609Z,11.12
2023-02-22T21:08:55.109Z,11.08
2023-02-22T21:11:22.915Z,11.04
2023-02-22T21:13:50.340Z,11.02
2023-02-22T21:16:20.571Z,10.98
2023-02-22T21:18:49.651Z,10.97
2023-02-22T21:21:15.912Z,10.94
2023-02-22T21:23:42.580Z,10.93
2023-02-22T21:26:17.442Z,10.93
2023-02-22T21:28:50.983Z,10.94
2023-02-22T21:31:22.219Z,10.94
2023-02-22T21:33:50.900Z,10.95
2023-02-22T21:36:17.919Z,10.95
2023-02-22T21:38:46.668Z,10.97
2023-02-22T21:41:14.952Z,10.97
2023-02-22T21:43:41.703Z,10.95
2023-02-22T21:46:12.839Z,10.95
2023-02-22T21:48:44.509Z,10.94
2023-02-22T21:51:15.597Z,10.93
2023-02-22T21:53:45.921Z,10.90
2023-02-22T21:56:18.408Z,10.92
2023-02-22T21:58:45.450Z,10.94
2023-02-22T22:01:16.583Z,10.94
2023-02-22T22:03:44.333Z,10.93
2023-02-22T22:06:12.861Z,10.93
2023-02-22T22:08:40.958Z,10.93
2023-02-22T22:11:12.015Z,10.94
2023-02-22T22:13:40.391Z,10.95
2023-02-22T22:16:14.145Z,10.97
2023-02-22T22:18:44.172Z,10.99
2023-02-22T22:21:16.777Z,10.99
2023-02-22T22:23:47.270Z,11.00
2023-02-22T22:26:16.800Z,11.00
2023-02-22T22:28:58.071Z,11.01
2023-02-22T22:31:27.899Z,11.05
2023-02-22T22:34:33.845Z,11.09
2023-02-22T22:37:00.554Z,11.11
2023-02-22T22:39:40.227Z,11.13
2023-02-22T22:42:08.388Z,11.15
2023-02-22T22:44:51.871Z,11.18
2023-02-22T22:47:30.366Z,11.20
2023-02-22T22:50:51.602Z,11.22
2023-02-22T22:53:15.826Z,11.26
2023-02-22T22:55:42.166Z,11.27
2023-02-22T22:58:12.693Z,11.28
2023-02-22T23:00:40.496Z,11.29
2023-02-22T23:03:15.636Z,11.30
2023-02-22T23:05:42.149Z,11.32
2023-02-22T23:08:10.307Z,11.34
2023-02-22T23:10:41.257Z,11.36
2023-02-22T23:13:14.959Z,11.38
2023-02-22T23:15:42.858Z,11.39
2023-02-22T23:18:09.408Z,11.40
2023-02-22T23:20:38.643Z,11.40
2023-02-22T23:23:05.556Z,11.40
2023-02-22T23:25:32.918Z,11.41
2023-02-22T23:27:59.266Z,11.42
2023-02-22T23:30:26.146Z,11.46
2023-02-22T23:32:53.503Z,11.49
2023-02-22T23:35:19.686Z,11.51
2023-02-22T23:37:52.296Z,11.51
2023-02-22T23:40:18.665Z,11.51
2023-02-22T23:42:54.459Z,11.52
2023-02-22T23:45:22.629Z,11.51
2023-02-22T23:47:56.298Z,11.49
2023-02-22T23:50:28.863Z,11.47
2023-02-22T23:52:57.710Z,11.47
2023-02-22T23:55:30.755Z,11.48
2023-02-22T23:57:58.604Z,11.49
